Hikarimaru No.17 — JD2956 — position and weather

sailwx.info

Track history (hours):
 
Tides and Currents Weather Stations Pressure Air Temp Water Temp Dewpoint Dewpoint Depression Visibility Wind Speed Wind Dir Waves Ship Positions

Hikarimaru No.17

Last reported at 2018-Jan-24 06:32 UTC. Time now 2018-Jan-24 11:05 UTC.
Position N 34°32' E 134°08'.

Length 105 m; draft 5.5 m.

Type: Tanker. MMSI: 431000984.

Date/timePositionNaut miles runAvg speedWind from/ knotsBaromVisibWave heightAir tempDewpointWater temp
2018-Jan-24 06:32N 34°32' E 134°08'012.8
2018-Jan-24 06:30N 34°32' E 134°08'1012.3
2018-Jan-24 05:41N 34°38' E 134°18'512.3
2018-Jan-24 05:19N 34°41' E 134°22'3 9.3
2018-Jan-24 04:59N 34°44' E 134°22'3 0.2
2018-Jan-23 14:04N 34°41' E 134°23'312.6
2018-Jan-23 13:50N 34°39' E 134°20'1412.5
2018-Jan-23 12:41N 34°32' E 134°05'7111.5
2018-Jan-23 06:33N 34°07' E 132°45'213.2
2018-Jan-23 06:22N 34°06' E 132°42'513.2
2018-Jan-23 06:00N 34°04' E 132°37'911.2
2018-Jan-23 05:11N 34°05' E 132°26'511.1
2018-Jan-23 04:46N 34°10' E 132°26'1 3.6
2018-Jan-23 04:30N 34°11' E 132°26'0 0.0
2018-Jan-22 22:04N 34°11' E 132°26'0 4.3
2018-Jan-22 22:01N 34°11' E 132°26'3 2.2
2018-Jan-22 20:39N 34°08' E 132°24'0 0.3
2018-Jan-22 20:27N 34°08' E 132°24'0 0.0
2018-Jan-22 20:00N 34°08' E 132°24'0 0.0
2018-Jan-22 19:30N 34°08' E 132°24'0 0.0
2018-Jan-22 15:48N 34°08' E 132°24'0 0.0
2018-Jan-22 12:36N 34°08' E 132°24'0 0.0
2018-Jan-22 12:28N 34°08' E 132°24'711.8
2018-Jan-22 11:54N 34°03' E 132°30'410.1
2018-Jan-22 11:30N 34°03' E 132°35'713.4
2018-Jan-22 11:00N 34°06' E 132°42'8612.4
2018-Jan-22 04:05N 34°39' E 134°19'313.3
2018-Jan-22 03:50N 34°41' E 134°21'3 0.7
2018-Jan-21 23:17N 34°44' E 134°22'3 0.2
2018-Jan-21 05:29N 34°42' E 134°23'0 0.0
2018-Jan-21 03:41N 34°42' E 134°23'0 0.2
2018-Jan-21 03:29N 34°42' E 134°23'0 0.0
2018-Jan-21 01:29N 34°42' E 134°23'0 0.0
2018-Jan-20 20:47N 34°42' E 134°23'0 0.0
2018-Jan-20 19:17N 34°42' E 134°23'0 0.0
2018-Jan-20 18:59N 34°42' E 134°23'0 0.0
2018-Jan-20 16:59N 34°42' E 134°23'0 0.0
2018-Jan-20 16:29N 34°42' E 134°23'0 0.1
2018-Jan-20 15:05N 34°42' E 134°23'0 0.5
2018-Jan-20 14:59N 34°42' E 134°23'0 0.0
2018-Jan-20 13:47N 34°42' E 134°23'0 0.0
2018-Jan-20 13:29N 34°42' E 134°23'0 0.0
2018-Jan-20 12:59N 34°42' E 134°23'0 0.0
2018-Jan-20 11:35N 34°42' E 134°23'0 0.0
2018-Jan-20 11:29N 34°42' E 134°23'0 0.0
2018-Jan-20 07:11N 34°42' E 134°23'0 0.7
2018-Jan-20 06:53N 34°41' E 134°23'1813.2
2018-Jan-20 05:32N 34°32' E 134°05'114.7
2018-Jan-20 05:29N 34°32' E 134°04'7312.6
2018-Jan-19 23:43N 34°06' E 132°42'313.8
2018-Jan-19 23:30N 34°05' E 132°39'713.3
2018-Jan-19 23:00N 34°02' E 132°31'611.9
2018-Jan-19 22:30N 34°06' E 132°26'3 1.6
2018-Jan-19 20:41N 34°08' E 132°24'0 0.0
2018-Jan-19 20:26N 34°08' E 132°24'0 0.0
2018-Jan-19 19:38N 34°08' E 132°24'0 0.0
2018-Jan-19 19:29N 34°08' E 132°24'0 0.0
2018-Jan-19 15:44N 34°08' E 132°24'0 0.1
2018-Jan-19 14:32N 34°08' E 132°24'0 0.0
2018-Jan-19 13:20N 34°08' E 132°24'0 0.0
2018-Jan-19 12:59N 34°08' E 132°24'0 0.0
2018-Jan-19 12:29N 34°08' E 132°24'0 0.0
2018-Jan-19 11:47N 34°08' E 132°24'0 0.2
2018-Jan-19 11:18N 34°08' E 132°24'3 8.5
2018-Jan-19 11:00N 34°10' E 132°26'1 0.1
2018-Jan-19 04:13N 34°11' E 132°26'0 0.2
2018-Jan-19 04:00N 34°11' E 132°26'4 7.3
2018-Jan-19 03:28N 34°09' E 132°22'612.9
2018-Jan-19 03:00N 34°12' E 132°16'2 3.1
2018-Jan-19 02:24N 34°13' E 132°15'0 0.0
2018-Jan-19 02:00N 34°13' E 132°15'0 0.0
2018-Jan-19 01:30N 34°13' E 132°15'0 0.0
2018-Jan-19 01:00N 34°13' E 132°15'0 0.0
2018-Jan-19 00:30N 34°13' E 132°15'0 0.0
2018-Jan-19 00:00N 34°13' E 132°15'0 0.0
2018-Jan-18 23:27N 34°13' E 132°15'0 0.0
2018-Jan-18 23:00N 34°13' E 132°15'0 0.0
2018-Jan-18 22:30N 34°13' E 132°15'0 0.0
2018-Jan-18 22:00N 34°13' E 132°15'0 0.0
2018-Jan-18 21:30N 34°13' E 132°15'0 0.0
2018-Jan-18 21:00N 34°13' E 132°15'0 0.0
2018-Jan-18 20:30N 34°13' E 132°15'0 0.0
2018-Jan-18 20:00N 34°13' E 132°15'0 0.0
2018-Jan-18 19:30N 34°13' E 132°15'0 0.0
2018-Jan-18 19:00N 34°13' E 132°15'0 0.0
2018-Jan-18 18:24N 34°13' E 132°15'0 0.0
2018-Jan-18 18:00N 34°13' E 132°15'0 0.0
2018-Jan-18 17:30N 34°13' E 132°15'0 0.0
2018-Jan-18 17:00N 34°13' E 132°15'0 0.0
2018-Jan-18 16:27N 34°13' E 132°15'0 0.0
2018-Jan-18 16:00N 34°13' E 132°15'0 0.0
2018-Jan-18 15:24N 34°13' E 132°15'0 0.0
2018-Jan-18 14:57N 34°13' E 132°15'0 0.0
2018-Jan-18 14:30N 34°13' E 132°15'0 0.0
2018-Jan-18 14:00N 34°13' E 132°15'0 0.0
2018-Jan-18 13:30N 34°13' E 132°15'0 0.0
2018-Jan-18 13:00N 34°13' E 132°15'0 0.0
2018-Jan-18 12:30N 34°13' E 132°15'0 0.0
2018-Jan-18 11:57N 34°13' E 132°15'0 0.0
2018-Jan-18 11:30N 34°13' E 132°15'0 0.0
2018-Jan-18 11:00N 34°13' E 132°15'0 0.0
2018-Jan-18 10:30N 34°13' E 132°15'0 0.0
2018-Jan-18 10:00N 34°13' E 132°15'0 0.0
2018-Jan-18 09:24N 34°13' E 132°15'0 0.0
2018-Jan-18 08:54N 34°13' E 132°15'0 0.0
2018-Jan-18 08:30N 34°13' E 132°15'0 0.0
2018-Jan-18 07:57N 34°13' E 132°15'0 0.0
2018-Jan-18 07:30N 34°13' E 132°15'0 0.0
2018-Jan-18 07:00N 34°13' E 132°15'0 0.2
2018-Jan-18 06:22N 34°13' E 132°15'2 5.4
2018-Jan-18 06:00N 34°12' E 132°16'3 4.0
2018-Jan-18 05:21N 34°10' E 132°18'0 0.0
2018-Jan-18 04:45N 34°10' E 132°18'0 0.0
2018-Jan-18 04:27N 34°10' E 132°18'0 0.0
2018-Jan-18 03:03N 34°10' E 132°18'0 0.1
2018-Jan-18 02:57N 34°10' E 132°18'0 0.0
2018-Jan-18 02:30N 34°10' E 132°18'0 0.0
2018-Jan-18 01:51N 34°10' E 132°18'0 0.1
2018-Jan-18 01:21N 34°10' E 132°19'0 0.0
2018-Jan-18 00:54N 34°10' E 132°19'  
Track history (hours):
 
Tides and Currents Weather Stations Pressure Air Temp Water Temp Dewpoint Dewpoint Depression Visibility Wind Speed Wind Dir Waves Ship Positions

Hikarimaru No.17

Last reported at 2018-Jan-24 06:32 UTC. Time now 2018-Jan-24 11:05 UTC.
Position N 34°32' E 134°08'.

Length 105 m; draft 5.5 m.

Type: Tanker. MMSI: 431000984.

Date/timePositionNaut miles runAvg speedWind from/ knotsBaromVisibWave heightAir tempDewpointWater temp
2018-Jan-24 06:32N 34°32' E 134°08'012.8
2018-Jan-24 06:30N 34°32' E 134°08'1012.3
2018-Jan-24 05:41N 34°38' E 134°18'512.3
2018-Jan-24 05:19N 34°41' E 134°22'3 9.3
2018-Jan-24 04:59N 34°44' E 134°22'3 0.2
2018-Jan-23 14:04N 34°41' E 134°23'312.6
2018-Jan-23 13:50N 34°39' E 134°20'1412.5
2018-Jan-23 12:41N 34°32' E 134°05'7111.5
2018-Jan-23 06:33N 34°07' E 132°45'213.2
2018-Jan-23 06:22N 34°06' E 132°42'513.2
2018-Jan-23 06:00N 34°04' E 132°37'911.2
2018-Jan-23 05:11N 34°05' E 132°26'511.1
2018-Jan-23 04:46N 34°10' E 132°26'1 3.6
2018-Jan-23 04:30N 34°11' E 132°26'0 0.0
2018-Jan-22 22:04N 34°11' E 132°26'0 4.3
2018-Jan-22 22:01N 34°11' E 132°26'3 2.2
2018-Jan-22 20:39N 34°08' E 132°24'0 0.3
2018-Jan-22 20:27N 34°08' E 132°24'0 0.0
2018-Jan-22 20:00N 34°08' E 132°24'0 0.0
2018-Jan-22 19:30N 34°08' E 132°24'0 0.0
2018-Jan-22 15:48N 34°08' E 132°24'0 0.0
2018-Jan-22 12:36N 34°08' E 132°24'0 0.0
2018-Jan-22 12:28N 34°08' E 132°24'711.8
2018-Jan-22 11:54N 34°03' E 132°30'410.1
2018-Jan-22 11:30N 34°03' E 132°35'713.4
2018-Jan-22 11:00N 34°06' E 132°42'8612.4
2018-Jan-22 04:05N 34°39' E 134°19'313.3
2018-Jan-22 03:50N 34°41' E 134°21'3 0.7
2018-Jan-21 23:17N 34°44' E 134°22'3 0.2
2018-Jan-21 05:29N 34°42' E 134°23'0 0.0
2018-Jan-21 03:41N 34°42' E 134°23'0 0.2
2018-Jan-21 03:29N 34°42' E 134°23'0 0.0
2018-Jan-21 01:29N 34°42' E 134°23'0 0.0
2018-Jan-20 20:47N 34°42' E 134°23'0 0.0
2018-Jan-20 19:17N 34°42' E 134°23'0 0.0
2018-Jan-20 18:59N 34°42' E 134°23'0 0.0
2018-Jan-20 16:59N 34°42' E 134°23'0 0.0
2018-Jan-20 16:29N 34°42' E 134°23'0 0.1
2018-Jan-20 15:05N 34°42' E 134°23'0 0.5
2018-Jan-20 14:59N 34°42' E 134°23'0 0.0
2018-Jan-20 13:47N 34°42' E 134°23'0 0.0
2018-Jan-20 13:29N 34°42' E 134°23'0 0.0
2018-Jan-20 12:59N 34°42' E 134°23'0 0.0
2018-Jan-20 11:35N 34°42' E 134°23'0 0.0
2018-Jan-20 11:29N 34°42' E 134°23'0 0.0
2018-Jan-20 07:11N 34°42' E 134°23'0 0.7
2018-Jan-20 06:53N 34°41' E 134°23'1813.2
2018-Jan-20 05:32N 34°32' E 134°05'114.7
2018-Jan-20 05:29N 34°32' E 134°04'7312.6
2018-Jan-19 23:43N 34°06' E 132°42'313.8
2018-Jan-19 23:30N 34°05' E 132°39'713.3
2018-Jan-19 23:00N 34°02' E 132°31'611.9
2018-Jan-19 22:30N 34°06' E 132°26'3 1.6
2018-Jan-19 20:41N 34°08' E 132°24'0 0.0
2018-Jan-19 20:26N 34°08' E 132°24'0 0.0
2018-Jan-19 19:38N 34°08' E 132°24'0 0.0
2018-Jan-19 19:29N 34°08' E 132°24'0 0.0
2018-Jan-19 15:44N 34°08' E 132°24'0 0.1
2018-Jan-19 14:32N 34°08' E 132°24'0 0.0
2018-Jan-19 13:20N 34°08' E 132°24'0 0.0
2018-Jan-19 12:59N 34°08' E 132°24'0 0.0
2018-Jan-19 12:29N 34°08' E 132°24'0 0.0
2018-Jan-19 11:47N 34°08' E 132°24'0 0.2
2018-Jan-19 11:18N 34°08' E 132°24'3 8.5
2018-Jan-19 11:00N 34°10' E 132°26'1 0.1
2018-Jan-19 04:13N 34°11' E 132°26'0 0.2
2018-Jan-19 04:00N 34°11' E 132°26'4 7.3
2018-Jan-19 03:28N 34°09' E 132°22'612.9
2018-Jan-19 03:00N 34°12' E 132°16'2 3.1
2018-Jan-19 02:24N 34°13' E 132°15'0 0.0
2018-Jan-19 02:00N 34°13' E 132°15'0 0.0
2018-Jan-19 01:30N 34°13' E 132°15'0 0.0
2018-Jan-19 01:00N 34°13' E 132°15'0 0.0
2018-Jan-19 00:30N 34°13' E 132°15'0 0.0
2018-Jan-19 00:00N 34°13' E 132°15'0 0.0
2018-Jan-18 23:27N 34°13' E 132°15'0 0.0
2018-Jan-18 23:00N 34°13' E 132°15'0 0.0
2018-Jan-18 22:30N 34°13' E 132°15'0 0.0
2018-Jan-18 22:00N 34°13' E 132°15'0 0.0
2018-Jan-18 21:30N 34°13' E 132°15'0 0.0
2018-Jan-18 21:00N 34°13' E 132°15'0 0.0
2018-Jan-18 20:30N 34°13' E 132°15'0 0.0
2018-Jan-18 20:00N 34°13' E 132°15'0 0.0
2018-Jan-18 19:30N 34°13' E 132°15'0 0.0
2018-Jan-18 19:00N 34°13' E 132°15'0 0.0
2018-Jan-18 18:24N 34°13' E 132°15'0 0.0
2018-Jan-18 18:00N 34°13' E 132°15'0 0.0
2018-Jan-18 17:30N 34°13' E 132°15'0 0.0
2018-Jan-18 17:00N 34°13' E 132°15'0 0.0
2018-Jan-18 16:27N 34°13' E 132°15'0 0.0
2018-Jan-18 16:00N 34°13' E 132°15'0 0.0
2018-Jan-18 15:24N 34°13' E 132°15'0 0.0
2018-Jan-18 14:57N 34°13' E 132°15'0 0.0
2018-Jan-18 14:30N 34°13' E 132°15'0 0.0
2018-Jan-18 14:00N 34°13' E 132°15'0 0.0
2018-Jan-18 13:30N 34°13' E 132°15'0 0.0
2018-Jan-18 13:00N 34°13' E 132°15'0 0.0
2018-Jan-18 12:30N 34°13' E 132°15'0 0.0
2018-Jan-18 11:57N 34°13' E 132°15'0 0.0
2018-Jan-18 11:30N 34°13' E 132°15'0 0.0
2018-Jan-18 11:00N 34°13' E 132°15'0 0.0
2018-Jan-18 10:30N 34°13' E 132°15'0 0.0
2018-Jan-18 10:00N 34°13' E 132°15'0 0.0
2018-Jan-18 09:24N 34°13' E 132°15'0 0.0
2018-Jan-18 08:54N 34°13' E 132°15'0 0.0
2018-Jan-18 08:30N 34°13' E 132°15'0 0.0
2018-Jan-18 07:57N 34°13' E 132°15'0 0.0
2018-Jan-18 07:30N 34°13' E 132°15'0 0.0
2018-Jan-18 07:00N 34°13' E 132°15'0 0.2
2018-Jan-18 06:22N 34°13' E 132°15'2 5.4
2018-Jan-18 06:00N 34°12' E 132°16'3 4.0
2018-Jan-18 05:21N 34°10' E 132°18'0 0.0
2018-Jan-18 04:45N 34°10' E 132°18'0 0.0
2018-Jan-18 04:27N 34°10' E 132°18'0 0.0
2018-Jan-18 03:03N 34°10' E 132°18'0 0.1
2018-Jan-18 02:57N 34°10' E 132°18'0 0.0
2018-Jan-18 02:30N 34°10' E 132°18'0 0.0
2018-Jan-18 01:51N 34°10' E 132°18'0 0.1
2018-Jan-18 01:21N 34°10' E 132°19'0 0.0
2018-Jan-18 00:54N 34°10' E 132°19'  

Dump ship's entire track history